createdAt,value
2022-08-17T07:10:55.588Z,59.22
2022-08-17T07:15:05.394Z,59.62
2022-08-17T07:19:10.993Z,59.63
2022-08-17T07:23:23.444Z,60.12
2022-08-17T07:27:28.565Z,59.52
2022-08-17T07:31:33.432Z,59.10
2022-08-17T07:35:40.928Z,58.44
2022-08-17T07:40:15.162Z,58.30
2022-08-17T07:44:13.441Z,57.11
2022-08-17T07:48:20.246Z,55.98
2022-08-17T07:52:51.714Z,54.14
2022-08-17T07:56:55.845Z,52.53
2022-08-17T08:01:08.900Z,51.57
2022-08-17T08:05:48.846Z,50.63
2022-08-17T08:09:47.278Z,49.90
2022-08-17T08:13:49.851Z,50.05
2022-08-17T08:17:55.372Z,49.64
2022-08-17T08:22:06.736Z,48.44
2022-08-17T08:26:23.342Z,47.49
2022-08-17T08:30:25.857Z,46.54
2022-08-17T08:34:47.415Z,46.36
2022-08-17T08:39:07.151Z,45.45
2022-08-17T08:43:22.610Z,45.11
2022-08-17T08:47:41.564Z,44.55
2022-08-17T08:51:52.787Z,44.87
2022-08-17T08:56:03.926Z,44.55
2022-08-17T09:00:15.645Z,44.03
2022-08-17T09:05:02.728Z,42.72
2022-08-17T09:09:11.417Z,42.90
2022-08-17T09:13:22.974Z,42.11
2022-08-17T09:17:36.038Z,40.67
2022-08-17T09:21:48.385Z,39.46
2022-08-17T09:25:58.220Z,38.83
2022-08-17T09:30:07.879Z,39.15
2022-08-17T09:34:14.666Z,37.93
2022-08-17T09:38:24.148Z,37.74
2022-08-17T09:42:33.678Z,37.84
2022-08-17T09:46:41.958Z,37.58
2022-08-17T09:51:04.005Z,37.37
2022-08-17T09:55:09.352Z,37.90
2022-08-17T09:59:38.319Z,36.86
2022-08-17T10:04:01.625Z,36.68
2022-08-17T10:08:10.503Z,36.23
2022-08-17T10:12:30.051Z,35.76
2022-08-17T10:16:39.614Z,34.34
2022-08-17T10:20:50.800Z,34.27
2022-08-17T10:25:22.303Z,34.69
2022-08-17T10:29:40.791Z,33.56
2022-08-17T10:34:09.647Z,32.73
2022-08-17T10:38:32.276Z,31.83
2022-08-17T10:42:43.593Z,31.50
2022-08-17T10:46:56.653Z,30.45
2022-08-17T10:51:07.627Z,30.72
2022-08-17T10:55:15.625Z,29.99
2022-08-17T10:59:51.664Z,30.70
2022-08-17T11:03:56.662Z,30.26
2022-08-17T11:08:19.088Z,30.93
2022-08-17T11:12:39.049Z,30.21
2022-08-17T11:16:54.303Z,30.46
2022-08-17T11:21:22.081Z,29.69
2022-08-17T11:25:34.233Z,29.00
2022-08-17T11:29:39.408Z,28.79
2022-08-17T11:34:04.770Z,28.74
2022-08-17T11:38:19.754Z,28.66
2022-08-17T11:42:43.426Z,28.88
2022-08-17T11:47:23.102Z,28.07
2022-08-17T11:51:58.322Z,29.00
2022-08-17T11:56:07.201Z,28.33
2022-08-17T12:00:49.863Z,28.62
2022-08-17T12:05:12.212Z,29.58
2022-08-17T12:09:19.828Z,28.48
2022-08-17T12:13:27.320Z,29.33
2022-08-17T12:17:40.139Z,29.55
2022-08-17T12:21:50.474Z,28.48
2022-08-17T12:25:58.034Z,28.86
2022-08-17T12:30:03.284Z,28.99
2022-08-17T12:34:06.105Z,29.31
2022-08-17T12:38:31.943Z,29.35
2022-08-17T12:42:39.211Z,29.18
2022-08-17T12:46:53.168Z,29.24
2022-08-17T12:51:01.864Z,30.01
2022-08-17T12:55:08.213Z,30.06
2022-08-17T12:59:11.674Z,30.41
2022-08-17T13:03:17.014Z,31.25
2022-08-17T13:07:35.545Z,31.33
2022-08-17T13:11:48.792Z,31.42
2022-08-17T13:15:54.503Z,31.72
2022-08-17T13:19:57.365Z,32.38
2022-08-17T13:24:02.369Z,32.32
2022-08-17T13:28:06.292Z,32.83
2022-08-17T13:32:19.899Z,32.60
2022-08-17T13:36:30.024Z,32.97
2022-08-17T13:40:39.810Z,32.98
2022-08-17T13:44:43.651Z,33.57
2022-08-17T13:48:47.908Z,33.32
2022-08-17T13:52:52.215Z,34.17
2022-08-17T13:57:01.363Z,35.03
2022-08-17T14:01:33.622Z,35.06
2022-08-17T14:05:38.242Z,35.13
2022-08-17T14:09:47.595Z,36.46
2022-08-17T14:13:50.450Z,39.49
2022-08-17T14:17:54.679Z,39.76
2022-08-17T14:21:59.782Z,40.34
2022-08-17T14:26:02.524Z,40.73
2022-08-17T14:30:06.234Z,38.61
2022-08-17T14:34:10.742Z,39.17
2022-08-17T14:38:15.033Z,39.71
2022-08-17T14:42:18.468Z,38.37
2022-08-17T14:46:21.095Z,37.10
2022-08-17T14:50:24.978Z,36.26
2022-08-17T14:54:34.027Z,35.69
2022-08-17T14:58:37.168Z,35.62
2022-08-17T15:02:46.703Z,36.05
2022-08-17T15:06:51.020Z,37.67
2022-08-17T15:10:54.526Z,38.03
2022-08-17T15:14:57.587Z,38.17
2022-08-17T15:19:00.167Z,38.09
2022-08-17T15:23:04.144Z,37.65
2022-08-17T15:27:06.804Z,37.00
2022-08-17T15:31:09.515Z,36.67
2022-08-17T15:35:14.343Z,34.35
2022-08-17T15:39:19.224Z,33.89
2022-08-17T15:43:27.961Z,33.99
2022-08-17T15:47:30.715Z,33.10
2022-08-17T15:51:35.865Z,32.16
2022-08-17T15:55:39.774Z,31.44
2022-08-17T15:59:44.310Z,32.43
2022-08-17T16:04:03.871Z,33.31
2022-08-17T16:08:10.975Z,33.01
2022-08-17T16:12:17.284Z,32.10
2022-08-17T16:16:19.841Z,31.47
2022-08-17T16:20:22.608Z,29.74
2022-08-17T16:24:25.306Z,28.91
2022-08-17T16:28:36.449Z,27.97
2022-08-17T16:32:40.299Z,27.30
2022-08-17T16:36:53.560Z,27.38
2022-08-17T16:40:58.441Z,27.22
2022-08-17T16:45:06.533Z,27.47
2022-08-17T16:49:09.584Z,25.55
2022-08-17T16:53:18.967Z,25.47
2022-08-17T16:57:23.077Z,25.92
2022-08-17T17:01:29.571Z,27.10
2022-08-17T17:05:44.368Z,28.02
2022-08-17T17:09:52.652Z,28.27
2022-08-17T17:13:57.842Z,28.53
2022-08-17T17:18:06.936Z,29.11
2022-08-17T17:22:16.422Z,30.09
2022-08-17T17:26:33.010Z,30.94
2022-08-17T17:30:44.574Z,31.20
2022-08-17T17:34:51.677Z,30.98
2022-08-17T17:39:00.029Z,31.72
2022-08-17T17:43:27.327Z,33.00
2022-08-17T17:47:26.534Z,33.55
2022-08-17T17:52:09.555Z,34.43
2022-08-17T17:56:18.819Z,35.02
2022-08-17T18:00:41.183Z,35.59
2022-08-17T18:04:55.985Z,36.82
2022-08-17T18:09:08.592Z,37.69
2022-08-17T18:13:22.642Z,38.43
2022-08-17T18:17:31.086Z,39.56
2022-08-17T18:21:38.708Z,40.66
2022-08-17T18:25:46.613Z,41.46
2022-08-17T18:29:50.578Z,42.40
2022-08-17T18:33:55.829Z,42.82
2022-08-17T18:38:20.423Z,43.26
2022-08-17T18:42:27.184Z,44.52
2022-08-17T18:46:33.170Z,44.97
2022-08-17T18:50:41.184Z,46.81
2022-08-17T18:55:03.204Z,47.29
2022-08-17T18:59:12.906Z,47.88
2022-08-17T19:03:24.257Z,47.79
2022-08-17T19:07:30.616Z,48.31
2022-08-17T19:11:36.285Z,48.42
2022-08-17T19:15:43.580Z,49.25
2022-08-17T19:19:52.938Z,50.78
2022-08-17T19:24:04.745Z,51.53
2022-08-17T19:28:21.645Z,52.29
2022-08-17T19:32:29.971Z,51.96
2022-08-17T19:36:39.266Z,52.01
2022-08-17T19:40:56.144Z,52.83
2022-08-17T19:45:05.479Z,53.21
2022-08-17T19:49:16.833Z,53.37
2022-08-17T19:53:54.157Z,53.67
2022-08-17T19:58:04.301Z,54.44
2022-08-17T20:02:21.736Z,55.58
2022-08-17T20:06:29.885Z,58.17
2022-08-17T20:10:41.836Z,58.22
2022-08-17T20:14:53.680Z,58.64
2022-08-17T20:19:01.563Z,58.04
2022-08-17T20:23:14.224Z,57.96
2022-08-17T20:27:22.231Z,58.45
2022-08-17T20:31:45.470Z,58.52
2022-08-17T20:36:06.932Z,59.41
2022-08-17T20:40:21.121Z,59.31
2022-08-17T20:44:32.990Z,60.44
2022-08-17T20:48:40.179Z,61.76
2022-08-17T20:52:54.585Z,61.36
2022-08-17T20:57:01.021Z,61.14
2022-08-17T21:01:13.147Z,60.64
2022-08-17T21:05:38.172Z,62.03
2022-08-17T21:09:40.848Z,63.71
2022-08-17T21:14:07.019Z,64.15
2022-08-17T21:18:16.902Z,63.80
2022-08-17T21:22:32.247Z,64.31
2022-08-17T21:26:50.839Z,64.11
2022-08-17T21:30:58.444Z,64.62
2022-08-17T21:35:47.519Z,64.47
2022-08-17T21:39:53.762Z,63.89
2022-08-17T21:44:03.030Z,65.03
2022-08-17T21:48:14.927Z,66.73
2022-08-17T21:52:21.077Z,67.05
2022-08-17T21:56:27.724Z,66.62
2022-08-17T22:00:32.715Z,66.68
2022-08-17T22:04:38.978Z,66.10
2022-08-17T22:08:41.585Z,65.49
2022-08-17T22:13:03.307Z,65.96
2022-08-17T22:17:08.522Z,66.74
2022-08-17T22:21:12.487Z,68.95
2022-08-17T22:25:22.687Z,67.99
2022-08-17T22:29:57.509Z,67.90
2022-08-17T22:34:13.339Z,68.83
2022-08-17T22:38:32.575Z,69.74
2022-08-17T22:42:43.952Z,70.60
2022-08-17T22:46:55.253Z,70.79
2022-08-17T22:51:12.216Z,72.34
2022-08-17T22:55:36.243Z,73.63
2022-08-17T22:59:49.608Z,72.87
2022-08-17T23:03:56.260Z,72.46
2022-08-17T23:07:58.800Z,71.61
2022-08-17T23:12:06.840Z,70.89
2022-08-17T23:16:09.659Z,71.44
2022-08-17T23:20:13.880Z,71.46
2022-08-17T23:24:21.615Z,71.53
2022-08-17T23:28:25.612Z,71.62
2022-08-17T23:32:28.458Z,71.66
2022-08-17T23:36:31.572Z,71.36
2022-08-17T23:40:34.476Z,71.57
2022-08-17T23:44:39.829Z,72.05
2022-08-17T23:48:42.373Z,71.95
2022-08-17T23:52:47.515Z,73.45
2022-08-17T23:56:50.139Z,74.27
